KLGU/LGU METAR and TAF weather

Enter ICAO airport designator
Station Type Date Time Source
KLGU METAR 2020/06/05 12:51 UTC NOAA

KLGU 051251Z AUTO 00000KT 10SM CLR 12/07 A2991 RMK AO2 SLP075 T01220072


Station Type Date Time Source
KLGU Decoded METAR 2020/06/05 12:51 UTC NOAA

LOGAN CACHE AIRPORT, UT, United States (KLGU) 41-47N 111-51W 1355M
Jun 05, 2020 - 08:51 AM EDT / 2020.06.05 1251 UTC
Wind: Calm:0
Visibility: 10 mile(s):0
Sky conditions: clear
Temperature: 54.0 F (12.2 C)
Dew Point: 45.0 F (7.2 C)
Relative Humidity: 71%
Pressure (altimeter): 29.91 in. Hg (1012 hPa)
ob: KLGU 051251Z AUTO 00000KT 10SM CLR 12/07 A2991 RMK AO2 SLP075 T01220072
cycle: 13

Station Type Date Time Source
KLGU TAF 2020/06/05 12:22 UTC NOAA

TAF KLGU 051120Z 0512/0612 VRB03KT P6SM FEW120
FM052100 21011KT P6SM SCT200
FM060300 14018G27KT P6SM BKN100
FM060500 14018G27KT P6SM BKN100 WS020/18045KT
FM060600 16014KT P6SM VCSH BKN100 WS020/19045KT
FM060700 16014KT P6SM VCSH BKN100

Example: see airport list